createdAt,value
2023-04-12T00:03:03.202Z,0.70
2023-04-12T00:08:06.859Z,0.80
2023-04-12T00:13:11.396Z,0.70
2023-04-12T00:18:14.290Z,0.65
2023-04-12T00:23:17.318Z,0.65
2023-04-12T00:28:21.531Z,0.77
2023-04-12T00:33:24.375Z,0.70
2023-04-12T00:38:27.272Z,0.70
2023-04-12T00:43:31.468Z,0.80
2023-04-12T00:48:34.609Z,0.90
2023-04-12T00:53:38.833Z,0.70
2023-04-12T00:58:43.003Z,0.70
2023-04-12T01:03:46.208Z,0.88
2023-04-12T01:09:11.262Z,0.75
2023-04-12T01:14:23.883Z,0.63
2023-04-12T01:19:45.995Z,0.70
2023-04-12T01:25:04.702Z,0.60
2023-04-12T01:30:13.030Z,0.80
2023-04-12T01:35:18.240Z,0.60
2023-04-12T01:40:22.117Z,0.65
2023-04-12T01:45:27.494Z,0.60
2023-04-12T01:50:40.735Z,0.60
2023-04-12T01:55:46.644Z,0.70
2023-04-12T02:00:51.872Z,0.80
2023-04-12T02:05:54.842Z,0.55
2023-04-12T02:10:57.685Z,0.57
2023-04-12T02:16:02.330Z,0.40
2023-04-12T02:21:05.502Z,0.47
2023-04-12T02:26:08.747Z,0.55
2023-04-12T02:31:13.162Z,0.57
2023-04-12T02:36:16.301Z,0.70
2023-04-12T02:41:19.765Z,0.63
2023-04-12T02:46:27.235Z,0.60
2023-04-12T02:51:31.456Z,0.70
2023-04-12T02:56:36.937Z,0.80
2023-04-12T03:01:41.240Z,0.50
2023-04-12T03:06:52.459Z,0.60
2023-04-12T03:11:55.324Z,0.57
2023-04-12T03:16:59.478Z,0.50
2023-04-12T03:22:03.105Z,0.80
2023-04-12T03:27:08.209Z,0.50
2023-04-12T03:32:12.598Z,0.70
2023-04-12T03:37:15.445Z,0.70
2023-04-12T03:42:31.787Z,0.60
2023-04-12T03:47:37.154Z,0.60
2023-04-12T03:52:40.146Z,0.77
2023-04-12T03:57:43.005Z,0.70
2023-04-12T04:02:48.286Z,0.70
2023-04-12T04:07:51.721Z,0.75
2023-04-12T04:12:54.575Z,0.50
2023-04-12T04:17:58.820Z,0.50
2023-04-12T04:23:01.705Z,0.40
2023-04-12T04:28:04.606Z,0.50
2023-04-12T04:33:09.226Z,0.60
2023-04-12T04:38:12.138Z,0.43
2023-04-12T04:43:18.529Z,0.82
2023-04-12T04:48:22.748Z,0.88
2023-04-12T04:53:25.705Z,0.52
2023-04-12T04:58:28.703Z,0.80
2023-04-12T05:03:34.163Z,0.63
2023-04-12T05:08:37.079Z,0.55
2023-04-12T05:13:39.900Z,0.60
2023-04-12T05:18:44.091Z,0.52
2023-04-12T05:23:48.767Z,0.50
2023-04-12T05:28:51.623Z,0.55
2023-04-12T05:33:55.922Z,0.55
2023-04-12T05:38:58.893Z,0.55
2023-04-12T05:44:03.540Z,0.63
2023-04-12T05:49:07.857Z,0.43
2023-04-12T05:54:10.704Z,0.50
2023-04-12T05:59:13.626Z,0.38
2023-04-12T06:04:17.969Z,0.50
2023-04-12T06:09:20.891Z,0.50
2023-04-12T06:14:23.824Z,1.20
2023-04-12T06:19:28.272Z,0.73
2023-04-12T06:24:31.468Z,0.63
2023-04-12T06:29:34.279Z,1.35
2023-04-12T06:34:38.449Z,2.20
2023-04-12T06:39:41.339Z,2.17
2023-04-12T06:44:44.263Z,2.03
2023-04-12T06:49:48.407Z,2.03
2023-04-12T06:54:51.323Z,1.88
2023-04-12T06:59:54.202Z,1.73
2023-04-12T07:04:58.359Z,2.28
2023-04-12T07:10:03.291Z,2.08
2023-04-12T07:15:07.148Z,2.33
2023-04-12T07:20:12.717Z,3.20
2023-04-12T07:25:15.566Z,2.22
2023-04-12T07:30:18.673Z,2.17
2023-04-12T07:35:23.357Z,2.33
2023-04-12T07:40:26.228Z,2.28
2023-04-12T07:45:29.178Z,2.00
2023-04-12T07:50:33.701Z,2.28
2023-04-12T07:55:36.683Z,2.40
2023-04-12T08:00:39.601Z,2.15
2023-04-12T08:05:44.161Z,1.60
2023-04-12T08:10:47.111Z,1.70
2023-04-12T08:15:50.045Z,1.58
2023-04-12T08:20:54.403Z,1.92
2023-04-12T08:26:03.243Z,1.63
2023-04-12T08:31:07.131Z,1.90
2023-04-12T08:36:12.005Z,1.88
2023-04-12T08:41:15.427Z,1.50
2023-04-12T08:46:18.701Z,1.70
2023-04-12T08:51:23.546Z,1.50
2023-04-12T08:56:26.768Z,1.58
2023-04-12T09:01:29.767Z,1.48
2023-04-12T09:06:34.484Z,1.45
2023-04-12T09:11:37.382Z,1.50
2023-04-12T09:16:42.095Z,1.33
2023-04-12T09:21:56.817Z,1.20
2023-04-12T09:27:04.055Z,1.15
2023-04-12T09:32:08.792Z,1.27
2023-04-12T09:37:17.654Z,1.10
2023-04-12T09:47:38.326Z,0.93
2023-04-12T09:52:43.489Z,1.05
2023-04-12T09:57:47.310Z,1.23
2023-04-12T10:02:52.529Z,1.33
2023-04-12T10:07:57.805Z,1.08
2023-04-12T10:13:02.157Z,1.17
2023-04-12T10:18:06.970Z,1.02
2023-04-12T10:23:12.174Z,1.02
2023-04-12T10:28:17.264Z,0.90
2023-04-12T10:33:26.179Z,1.17
2023-04-12T10:38:35.384Z,1.00
2023-04-12T10:43:39.021Z,0.88
2023-04-12T10:48:52.731Z,1.25
2023-04-12T10:54:32.457Z,0.90
2023-04-12T10:59:56.875Z,0.90
2023-04-12T11:05:08.636Z,1.10
2023-04-12T11:10:20.007Z,1.10
2023-04-12T11:15:28.047Z,1.02
2023-04-12T11:20:33.432Z,0.90
2023-04-12T11:25:38.685Z,1.20
2023-04-12T11:30:50.905Z,1.02
2023-04-12T11:35:53.838Z,1.00
2023-04-12T11:40:58.080Z,1.00
2023-04-12T11:46:01.629Z,0.80
2023-04-12T11:51:19.977Z,1.05
2023-04-12T11:56:24.978Z,1.00
2023-04-12T12:01:29.212Z,0.90
2023-04-12T12:06:32.757Z,0.80
2023-04-12T12:11:37.055Z,0.80
2023-04-12T12:16:41.709Z,0.90
2023-04-12T12:21:44.553Z,0.95
2023-04-12T12:26:51.049Z,1.05
2023-04-12T12:31:54.023Z,1.00
2023-04-12T12:36:57.308Z,0.75
2023-04-12T12:42:02.737Z,0.90
2023-04-12T12:47:13.934Z,0.70
2023-04-12T12:52:18.094Z,0.85
2023-04-12T12:57:22.282Z,0.80
2023-04-12T13:02:25.307Z,0.80
2023-04-12T13:07:28.373Z,0.70
2023-04-12T13:12:32.574Z,0.75
2023-04-12T13:17:35.692Z,1.10
2023-04-12T13:22:38.548Z,0.75
2023-04-12T13:27:42.716Z,0.77
2023-04-12T13:32:45.719Z,0.70
2023-04-12T13:37:48.690Z,0.80
2023-04-12T13:42:53.470Z,1.00
2023-04-12T13:47:57.090Z,0.98
2023-04-12T13:52:59.942Z,0.93
2023-04-12T13:58:04.122Z,0.63
2023-04-12T14:03:08.290Z,0.63
2023-04-12T14:08:11.606Z,0.70
2023-04-12T14:13:15.838Z,0.82
2023-04-12T14:18:18.911Z,0.90
2023-04-12T14:28:30.880Z,0.63
2023-04-12T14:33:33.733Z,0.70
2023-04-12T14:38:37.007Z,0.63
2023-04-12T14:43:41.159Z,0.80
2023-04-12T14:48:44.455Z,0.80
2023-04-12T14:53:49.157Z,0.73
2023-04-12T14:58:55.152Z,0.93
2023-04-12T15:04:00.809Z,0.80
2023-04-12T15:09:06.429Z,0.90
2023-04-12T15:14:10.973Z,0.60
2023-04-12T15:19:19.693Z,0.60
2023-04-12T15:24:25.182Z,0.63
2023-04-12T15:29:31.259Z,0.60
2023-04-12T15:34:34.130Z,0.60
2023-04-12T15:39:37.363Z,0.50
2023-04-12T15:44:43.600Z,0.60
2023-04-12T15:49:47.136Z,0.50
2023-04-12T15:54:49.978Z,0.55
2023-04-12T15:59:55.386Z,0.63
2023-04-12T16:04:58.317Z,0.60
2023-04-12T16:10:01.353Z,0.68
2023-04-12T16:15:06.936Z,0.60
2023-04-12T16:20:12.708Z,0.73
2023-04-12T16:25:16.691Z,0.52
2023-04-12T16:30:22.518Z,1.30
2023-04-12T16:35:25.897Z,0.82
2023-04-12T16:40:29.243Z,1.00
2023-04-12T16:45:33.847Z,1.20
2023-04-12T16:50:36.961Z,0.90
2023-04-12T16:55:43.714Z,1.02
2023-04-12T17:00:47.945Z,0.90
2023-04-12T17:05:50.951Z,0.90
2023-04-12T17:10:54.263Z,0.77
2023-04-12T17:15:58.553Z,1.10
2023-04-12T17:21:01.701Z,1.70
2023-04-12T17:26:05.808Z,1.27
2023-04-12T17:31:10.290Z,1.08
2023-04-12T17:36:14.012Z,1.00
2023-04-12T17:41:16.859Z,1.02
2023-04-12T17:46:21.470Z,0.88
2023-04-12T17:51:24.367Z,1.10
2023-04-12T17:56:27.317Z,0.93
2023-04-12T18:01:31.605Z,1.00
2023-04-12T18:06:34.480Z,1.02
2023-04-12T18:11:38.765Z,0.80
2023-04-12T18:16:43.024Z,3.25
2023-04-12T18:21:48.510Z,1.48
2023-04-12T18:26:51.434Z,1.13
2023-04-12T18:31:56.935Z,0.95
2023-04-12T18:37:00.415Z,0.93
2023-04-12T18:42:03.654Z,1.13
2023-04-12T18:47:07.859Z,1.88
2023-04-12T18:52:10.792Z,80.20
2023-04-12T18:57:14.670Z,144.35
2023-04-12T19:02:19.224Z,206.93
2023-04-12T19:07:22.258Z,185.73
2023-04-12T19:12:25.330Z,154.77
2023-04-12T19:17:30.440Z,138.07
2023-04-12T19:22:33.358Z,126.53
2023-04-12T19:27:36.755Z,117.75
2023-04-12T19:32:42.365Z,107.47
2023-04-12T19:37:45.312Z,99.78
2023-04-12T19:42:48.298Z,93.22
2023-04-12T19:47:52.741Z,88.15
2023-04-12T19:52:56.648Z,83.05
2023-04-12T19:58:00.369Z,79.55
2023-04-12T20:03:04.581Z,74.75
2023-04-12T20:08:07.474Z,66.28
2023-04-12T20:13:15.037Z,66.30
2023-04-12T20:18:19.332Z,61.67
2023-04-12T20:23:22.164Z,56.63
2023-04-12T20:28:25.706Z,55.85
2023-04-12T20:33:30.323Z,54.00
2023-04-12T20:38:33.163Z,52.90
2023-04-12T20:43:36.334Z,51.70
2023-04-12T20:48:40.835Z,49.25
2023-04-12T20:53:45.549Z,47.35
2023-04-12T20:58:49.708Z,46.95
2023-04-12T21:03:55.785Z,44.28
2023-04-12T21:08:58.960Z,43.53
2023-04-12T21:14:02.060Z,43.55
2023-04-12T21:19:07.632Z,39.05
2023-04-12T21:24:10.458Z,40.08
2023-04-12T21:29:13.350Z,36.55
2023-04-12T21:34:18.321Z,36.42
2023-04-12T21:39:21.205Z,36.67
2023-04-12T21:44:24.125Z,35.05
2023-04-12T21:49:30.079Z,33.75
2023-04-12T21:54:36.739Z,33.22
2023-04-12T21:59:41.713Z,32.22
2023-04-12T22:04:46.740Z,32.30
2023-04-12T22:09:51.054Z,32.13
2023-04-12T22:14:54.037Z,29.77
2023-04-12T22:19:58.489Z,28.75
2023-04-12T22:25:01.588Z,27.55
2023-04-12T22:30:04.758Z,27.02
2023-04-12T22:35:10.276Z,26.70
2023-04-12T22:40:14.041Z,25.35
2023-04-12T22:45:17.722Z,24.70
2023-04-12T22:50:22.286Z,24.08
2023-04-12T22:55:25.475Z,23.73
2023-04-12T23:00:30.405Z,22.95
2023-04-12T23:05:34.620Z,22.17
2023-04-12T23:10:38.020Z,24.58
2023-04-12T23:15:42.728Z,19.45
2023-04-12T23:20:49.318Z,15.32
2023-04-12T23:25:52.948Z,14.25
2023-04-12T23:30:57.629Z,13.27
2023-04-12T23:36:03.474Z,12.32
2023-04-12T23:41:08.974Z,10.95
2023-04-12T23:46:12.056Z,9.02
2023-04-12T23:51:16.776Z,8.85
2023-04-12T23:56:19.628Z,7.55
